Time;durP1;ratioP1;P1;durP2;ratioP2;P2;SDS_P1;SDS_P2;PMS_P1;PMS_P2;Temp;Humidity;BMP_temperature;BMP_pressure;BME280_temperature;BME280_humidity;BME280_pressure;Samples;Min_cycle;Max_cycle;Signal;HPM_P1;HPM_P2
2023/01/08 00:02:06;;;;;;;83.95;50.78;;;;;;;2.48;84.62;100087.73;2136320;82;29386;-63
2023/01/08 00:05:18;;;;;;;91.75;54.25;;;;;;;2.47;84.64;100095.24;2124534;83;27715;-61
2023/01/08 00:08:23;;;;;;;80.87;51.02;;;;;;;2.47;84.59;100082.02;2125159;83;28716;-67
2023/01/08 00:11:43;;;;;;;85.62;51.95;;;;;;;2.45;84.63;100086.03;2124443;83;31114;-64
2023/01/08 00:14:55;;;;;;;83.90;51.85;;;;;;;2.42;84.62;100085.63;2124245;83;33933;-68
2023/01/08 00:18:03;;;;;;;64.03;38.55;;;;;;;2.41;84.57;100081.70;2120779;83;27696;-61
2023/01/08 00:21:06;;;;;;;81.85;49.63;;;;;;;2.40;84.60;100083.92;2124736;83;27720;-62
2023/01/08 00:24:08;;;;;;;81.72;50.25;;;;;;;2.39;84.51;100083.06;2124623;83;28819;-61
2023/01/08 00:27:10;;;;;;;81.10;49.20;;;;;;;2.37;84.53;100080.01;2124632;83;31855;-61
2023/01/08 00:30:13;;;;;;;82.37;49.77;;;;;;;2.35;84.49;100077.41;2124630;83;33787;-60
2023/01/08 00:33:15;;;;;;;85.25;50.78;;;;;;;2.33;84.48;100078.31;2124701;83;29352;-60
2023/01/08 00:36:18;;;;;;;82.85;49.03;;;;;;;2.30;84.56;100077.94;2124535;83;27771;-60
2023/01/08 00:39:21;;;;;;;87.75;49.20;;;;;;;2.28;84.53;100073.12;2124725;83;28100;-60
2023/01/08 00:42:23;;;;;;;81.87;48.50;;;;;;;2.25;84.46;100063.50;2124892;83;31060;-60
2023/01/08 00:45:25;;;;;;;85.15;50.43;;;;;;;2.23;84.43;100058.69;2124999;83;33123;-60
2023/01/08 00:48:27;;;;;;;84.15;49.30;;;;;;;2.21;84.54;100060.48;2116539;83;30538;-61
2023/01/08 00:51:29;;;;;;;82.08;47.90;;;;;;;2.20;84.56;100055.23;2130188;83;27772;-61
2023/01/08 00:54:31;;;;;;;84.45;48.55;;;;;;;2.18;84.64;100049.11;2119623;84;29076;-61
2023/01/08 00:57:36;;;;;;;86.60;50.85;;;;;;;2.16;84.66;100053.08;2119271;84;31478;-61
2023/01/08 01:00:38;;;;;;;;;;;;;;;2.15;84.66;100053.13;2122216;84;33866;-59
2023/01/08 01:03:41;;;;;;;82.80;48.05;;;;;;;2.13;84.65;100052.70;2119330;84;30268;-58
2023/01/08 01:06:43;;;;;;;80.90;49.10;;;;;;;2.12;84.78;100062.84;2119067;84;27673;-59
2023/01/08 01:09:45;;;;;;;90.25;53.52;;;;;;;2.11;84.76;100065.06;2118961;84;29899;-59
2023/01/08 01:12:48;;;;;;;89.50;52.53;;;;;;;2.10;84.82;100062.00;2118973;84;32412;-60
2023/01/08 01:16:00;;;;;;;91.53;54.03;;;;;;;2.11;84.84;100065.53;2119228;84;34069;-59
2023/01/08 01:19:04;;;;;;;88.17;54.03;;;;;;;2.09;84.82;100066.86;2118772;84;29502;-61
2023/01/08 01:22:05;;;;;;;91.70;55.10;;;;;;;2.09;84.78;100063.36;2082224;85;27747;-59
2023/01/08 01:25:08;;;;;;;93.85;55.43;;;;;;;2.10;84.84;100066.43;2082136;85;29939;-59
2023/01/08 01:28:10;;;;;;;88.55;54.42;;;;;;;2.07;84.79;100063.84;2109614;84;31762;-59
2023/01/08 01:31:14;;;;;;;90.40;53.10;;;;;;;2.06;84.74;100053.73;2109504;84;34212;-60
2023/01/08 01:34:16;;;;;;;95.72;54.98;;;;;;;2.05;84.65;100049.34;2110066;84;30444;-59
2023/01/08 01:37:18;;;;;;;97.95;57.73;;;;;;;2.03;84.93;100043.22;2109870;84;28245;-59
2023/01/08 01:40:20;;;;;;;94.17;56.37;;;;;;;2.02;84.87;100048.08;2109939;84;29479;-59
2023/01/08 01:43:42;;;;;;;102.30;55.03;;;;;;;2.01;84.92;100034.45;2109494;84;32466;-59
2023/01/08 01:46:44;;;;;;;90.05;54.88;;;;;;;2.00;84.96;100043.27;2109240;84;32977;-59
2023/01/08 01:49:51;;;;;;;88.60;54.90;;;;;;;2.00;85.05;100039.73;2122138;83;30468;-59
2023/01/08 01:53:14;;;;;;;96.92;55.43;;;;;;;1.99;84.98;100035.38;2123174;83;27667;-60
2023/01/08 01:56:16;;;;;;;125.92;67.37;;;;;;;1.97;84.86;100048.17;2109924;84;29172;-59
2023/01/08 01:59:18;;;;;;;134.32;73.40;;;;;;;1.93;84.73;100045.59;2109753;84;31413;-59
2023/01/08 02:02:20;;;;;;;140.25;74.07;;;;;;;1.87;84.75;100036.01;2114932;83;34192;-59
2023/01/08 02:05:25;;;;;;;112.30;62.13;;;;;;;1.82;84.57;100036.09;2126083;82;30004;-59
2023/01/08 02:09:02;;;;;;;108.70;60.92;;;;;;;1.78;84.54;100037.51;2126756;83;27699;-60
2023/01/08 02:12:15;;;;;;;99.22;56.23;;;;;;;1.74;84.49;100035.81;2135275;83;29038;-59
2023/01/08 02:15:28;;;;;;;95.12;53.95;;;;;;;1.69;84.48;100029.73;2134581;83;31057;-60
2023/01/08 02:18:36;;;;;;;98.20;55.88;;;;;;;1.66;84.49;100030.67;2032002;87;33024;-60
2023/01/08 02:21:45;;;;;;;94.80;52.62;;;;;;;1.62;84.34;100019.73;2033882;87;29669;-59
2023/01/08 02:25:13;;;;;;;87.50;49.25;;;;;;;1.58;84.30;100016.71;2034878;87;28492;-60
2023/01/08 02:28:16;;;;;;;91.82;50.63;;;;;;;1.54;84.30;100018.54;2006389;88;29620;-60
2023/01/08 02:31:19;;;;;;;85.35;50.05;;;;;;;1.52;84.51;100011.09;2007087;88;31037;-60
2023/01/08 02:34:21;;;;;;;86.50;47.58;;;;;;;1.50;84.53;100011.56;2007095;88;32963;-59
2023/01/08 02:37:23;;;;;;;79.45;47.40;;;;;;;1.46;84.49;100010.75;2007051;88;30551;-60
2023/01/08 02:40:30;;;;;;;83.33;49.40;;;;;;;1.44;84.43;99999.81;2007278;88;27774;-60
2023/01/08 02:43:49;;;;;;;81.87;48.80;;;;;;;1.43;84.47;99995.42;2006514;88;28713;-60
2023/01/08 02:46:54;;;;;;;81.25;48.05;;;;;;;1.41;84.60;100011.73;1972570;90;31101;-60
2023/01/08 02:50:10;;;;;;;85.35;48.92;;;;;;;1.39;84.57;100005.60;1977415;89;33736;-60
2023/01/08 02:53:31;;;;;;;77.47;46.48;;;;;;;1.38;84.51;99999.90;1974366;90;29523;-60
2023/01/08 02:56:41;;;;;;;82.12;48.58;;;;;;;1.34;84.52;99988.07;2033510;85;27673;-60
2023/01/08 02:59:44;;;;;;;90.72;51.88;;;;;;;1.33;84.63;99988.11;2075050;85;28666;-60
2023/01/08 03:02:47;;;;;;;88.42;50.35;;;;;;;1.33;84.87;100006.12;2078079;85;31047;-60
2023/01/08 03:05:54;;;;;;;83.92;48.98;;;;;;;1.34;84.88;100022.38;2145293;82;33053;-60
2023/01/08 03:08:56;;;;;;;82.25;47.93;;;;;;;1.34;84.74;100020.20;2145788;82;29367;-60
2023/01/08 03:12:03;;;;;;;81.67;48.23;;;;;;;1.31;84.54;100005.30;2146588;83;27597;-60
2023/01/08 03:15:08;;;;;;;84.83;49.27;;;;;;;1.28;84.39;99993.90;2144962;83;29878;-61
2023/01/08 03:18:14;;;;;;;78.37;46.18;;;;;;;1.26;84.60;100005.81;2146466;82;31207;-60
2023/01/08 03:21:18;;;;;;;78.07;45.98;;;;;;;1.25;84.45;100011.09;2122050;82;33011;-60
2023/01/08 03:24:25;;;;;;;77.72;43.63;;;;;;;1.20;84.28;100014.70;2146144;83;29891;-60
2023/01/08 03:27:29;;;;;;;77.42;45.98;;;;;;;1.14;84.06;100008.66;2146253;82;27716;-59
2023/01/08 03:30:31;;;;;;;82.02;46.65;;;;;;;1.10;84.01;100005.17;2145916;83;28654;-60
2023/01/08 03:33:33;;;;;;;77.67;45.38;;;;;;;1.06;83.97;100000.40;2111639;83;32387;-60
2023/01/08 03:36:36;;;;;;;85.20;47.20;;;;;;;1.02;83.99;99994.73;2136742;83;33299;-60
2023/01/08 03:39:48;;;;;;;76.95;46.02;;;;;;;1.02;84.17;99995.20;2136337;83;30284;-60
2023/01/08 03:42:50;;;;;;;89.28;51.40;;;;;;;1.00;84.22;99993.88;2136472;83;28103;-60
2023/01/08 03:46:03;;;;;;;93.27;50.92;;;;;;;0.99;84.32;99986.01;2136789;82;29464;-60
2023/01/08 03:49:06;;;;;;;92.10;54.63;;;;;;;1.00;84.49;99996.98;2136735;82;31044;-60
2023/01/08 03:52:08;;;;;;;90.42;54.48;;;;;;;0.98;84.52;99972.39;2136686;82;32959;-60
2023/01/08 03:55:10;;;;;;;99.07;58.95;;;;;;;1.00;84.90;99962.23;2136813;82;29334;-60
2023/01/08 03:58:12;;;;;;;98.62;56.23;;;;;;;1.04;85.14;99962.61;2136659;83;27810;-60
2023/01/08 04:01:15;;;;;;;100.72;56.53;;;;;;;1.08;85.28;99946.75;2133689;83;28963;-60
2023/01/08 04:04:17;;;;;;;94.75;55.43;;;;;;;1.10;85.38;99939.22;2125730;83;30631;-60
2023/01/08 04:07:19;;;;;;;99.15;55.92;;;;;;;1.13;85.37;99923.34;2123753;83;34266;-60
2023/01/08 04:10:22;;;;;;;99.03;58.80;;;;;;;1.16;85.45;99924.62;2123754;83;30192;-60
2023/01/08 04:13:23;;;;;;;101.87;59.15;;;;;;;1.20;85.68;99932.02;2124315;83;27671;-60
2023/01/08 04:16:25;;;;;;;106.15;61.05;;;;;;;1.23;85.66;99936.40;2124128;83;29868;-61
2023/01/08 04:19:27;;;;;;;94.77;55.40;;;;;;;1.25;85.70;99927.55;2123707;83;31878;-61
2023/01/08 04:22:29;;;;;;;100.67;57.75;;;;;;;1.28;85.79;99920.90;2124168;83;34099;-61
2023/01/08 04:25:31;;;;;;;92.08;55.17;;;;;;;1.30;85.80;99917.80;2124101;83;29705;-60
2023/01/08 04:28:33;;;;;;;108.60;61.63;;;;;;;1.33;85.79;99930.91;2126339;83;28015;-60
2023/01/08 04:31:35;;;;;;;102.35;59.48;;;;;;;1.36;85.79;99938.77;2128246;82;28773;-60
2023/01/08 04:34:37;;;;;;;97.17;56.70;;;;;;;1.38;85.77;99937.45;2145169;83;32335;-60
2023/01/08 04:37:39;;;;;;;95.87;53.85;;;;;;;1.40;85.70;99945.33;2145911;83;34224;-60
2023/01/08 04:40:41;;;;;;;90.85;54.08;;;;;;;1.40;85.52;99951.92;2145565;83;30517;-61
2023/01/08 04:43:43;;;;;;;95.90;54.30;;;;;;;1.40;85.36;99953.24;2145198;83;27665;-61
2023/01/08 04:46:45;;;;;;;102.58;58.38;;;;;;;1.38;85.29;99946.69;2145432;83;30039;-60
2023/01/08 04:49:47;;;;;;;101.67;59.67;;;;;;;1.36;85.34;99928.68;2145929;83;31423;-61
2023/01/08 04:52:49;;;;;;;101.70;57.93;;;;;;;1.37;85.46;99923.83;2145790;83;33319;-60
2023/01/08 04:55:50;;;;;;;94.25;56.70;;;;;;;1.38;85.52;99918.97;2145576;83;30448;-60
2023/01/08 04:58:52;;;;;;;91.65;54.45;;;;;;;1.40;85.63;99917.61;2145224;82;27745;-60
2023/01/08 05:01:55;;;;;;;98.40;57.15;;;;;;;1.42;85.69;99925.05;2145166;83;28272;-60
2023/01/08 05:04:57;;;;;;;97.45;55.70;;;;;;;1.45;85.83;99926.33;2144050;82;31065;-60
2023/01/08 05:07:59;;;;;;;94.85;55.88;;;;;;;1.48;85.81;99914.40;2142647;83;33375;-60
2023/01/08 05:11:02;;;;;;;94.65;54.75;;;;;;;1.50;85.83;99909.50;2142514;83;30121;-60
2023/01/08 05:14:03;;;;;;;96.87;54.93;;;;;;;1.52;85.83;99905.50;2142417;83;27632;-60
2023/01/08 05:17:05;;;;;;;92.47;51.68;;;;;;;1.54;85.85;99887.86;2142530;83;29877;-60
2023/01/08 05:20:08;;;;;;;94.35;56.00;;;;;;;1.56;85.87;99890.03;2142502;83;31054;-60
2023/01/08 05:23:10;;;;;;;89.15;53.17;;;;;;;1.60;85.96;99893.47;2142483;83;33011;-60
2023/01/08 05:26:12;;;;;;;87.35;51.15;;;;;;;1.62;86.00;99878.04;2142194;83;30601;-60
2023/01/08 05:29:14;;;;;;;90.03;52.38;;;;;;;1.63;85.98;99887.70;2142390;83;27700;-62
2023/01/08 05:32:18;;;;;;;100.45;54.25;;;;;;;1.66;85.99;99888.08;2135953;83;29913;-61
2023/01/08 05:35:20;;;;;;;91.45;52.33;;;;;;;1.66;85.99;99882.34;2142525;83;31034;-61
2023/01/08 05:38:24;;;;;;;91.20;54.15;;;;;;;1.67;86.01;99881.91;2142497;83;34114;-61
2023/01/08 05:41:26;;;;;;;87.33;52.17;;;;;;;1.69;86.02;99880.54;2142748;83;30487;-60
2023/01/08 05:44:28;;;;;;;86.60;51.60;;;;;;;1.70;86.10;99884.48;2142682;83;27617;-61
2023/01/08 05:47:31;;;;;;;90.95;50.75;;;;;;;1.70;85.91;99881.84;2142636;83;29484;-60
2023/01/08 05:50:34;;;;;;;94.32;53.65;;;;;;;1.71;85.90;99885.34;2142505;83;31058;-60
2023/01/08 05:53:36;;;;;;;83.05;51.45;;;;;;;1.73;85.92;99882.23;2142495;83;33749;-61
2023/01/08 05:56:38;;;;;;;78.97;50.63;;;;;;;1.73;85.88;99872.98;2142203;83;30536;-60
2023/01/08 05:59:40;;;;;;;81.20;48.78;;;;;;;1.73;85.83;99868.59;2142910;83;27661;-60
2023/01/08 06:02:46;;;;;;;75.95;47.83;;;;;;;1.74;85.83;99872.94;2108888;82;29825;-61
2023/01/08 06:05:48;;;;;;;81.30;49.63;;;;;;;1.74;85.81;99878.69;2095115;84;31062;-62
2023/01/08 06:08:50;;;;;;;82.40;48.08;;;;;;;1.74;85.88;99866.34;2100613;83;33402;-60
2023/01/08 06:11:52;;;;;;;81.67;48.00;;;;;;;1.73;85.83;99861.98;2132226;83;30184;-60
2023/01/08 06:14:54;;;;;;;78.75;48.02;;;;;;;1.74;85.80;99863.70;2132477;83;27694;-63
2023/01/08 06:17:56;;;;;;;77.27;44.85;;;;;;;1.75;85.76;99861.48;2132225;83;29920;-65
2023/01/08 06:20:58;;;;;;;80.15;46.23;;;;;;;1.73;85.66;99858.46;2132467;83;31387;-61
2023/01/08 06:24:00;;;;;;;83.00;48.68;;;;;;;1.73;85.64;99859.78;2132633;83;33510;-63
2023/01/08 06:27:02;;;;;;;75.47;47.23;;;;;;;1.70;85.56;99848.84;2132163;83;31467;-64
2023/01/08 06:30:06;;;;;;;82.27;48.08;;;;;;;1.70;85.57;99851.48;2131963;83;27722;-63
2023/01/08 06:33:08;;;;;;;79.00;47.38;;;;;;;1.67;85.57;99846.25;2120322;83;29493;-66
2023/01/08 06:36:10;;;;;;;81.00;47.53;;;;;;;1.65;85.63;99837.50;2119993;83;32353;-66
2023/01/08 06:39:12;;;;;;;75.28;45.28;;;;;;;1.63;85.67;99839.30;2120435;84;34181;-64
2023/01/08 06:42:14;;;;;;;77.97;46.90;;;;;;;1.62;85.67;99843.72;2120496;83;30095;-66
2023/01/08 06:45:16;;;;;;;77.15;46.73;;;;;;;1.62;85.71;99841.08;2121077;84;27679;-63
2023/01/08 06:48:18;;;;;;;75.15;46.58;;;;;;;1.62;85.77;99832.27;2120191;83;29929;-66
2023/01/08 06:51:20;;;;;;;77.58;44.98;;;;;;;1.61;85.78;99831.41;2120511;83;32212;-65
2023/01/08 06:54:21;;;;;;;72.95;43.80;;;;;;;1.62;85.78;99841.52;2120454;83;33394;-65
2023/01/08 06:57:23;;;;;;;69.70;43.13;;;;;;;1.62;85.83;99837.55;2120194;84;30602;-65
2023/01/08 07:00:26;;;;;;;70.47;41.10;;;;;;;1.62;85.83;99834.48;2120709;83;27591;-65
2023/01/08 07:03:28;;;;;;;66.47;41.37;;;;;;;1.63;85.80;99832.69;2120520;83;29514;-65
2023/01/08 07:06:30;;;;;;;65.95;40.88;;;;;;;1.64;85.84;99831.79;2119040;83;31516;-65
2023/01/08 07:09:34;;;;;;;71.33;41.45;;;;;;;1.65;85.90;99834.86;2120101;83;33048;-65
2023/01/08 07:12:35;;;;;;;65.22;39.53;;;;;;;1.67;85.93;99839.66;2116394;83;29329;-67
2023/01/08 07:15:39;;;;;;;68.42;39.50;;;;;;;1.70;86.05;99843.56;2142271;83;27693;-65
2023/01/08 07:18:41;;;;;;;67.85;39.98;;;;;;;1.73;86.12;99836.02;2119290;84;28715;-67
2023/01/08 07:21:43;;;;;;;64.32;40.00;;;;;;;1.77;86.20;99835.05;2124015;83;31919;-65
2023/01/08 07:24:45;;;;;;;64.30;37.13;;;;;;;1.81;86.23;99835.42;2116157;83;34104;-66
2023/01/08 07:27:49;;;;;;;62.85;35.88;;;;;;;1.85;86.13;99834.89;2142814;83;30698;-66
2023/01/08 07:30:50;;;;;;;55.03;32.98;;;;;;;1.88;86.09;99840.97;2143248;83;27625;-66
2023/01/08 07:33:52;;;;;;;57.73;36.50;;;;;;;1.92;86.16;99834.73;2143130;83;29671;-64
2023/01/08 07:36:56;;;;;;;59.85;35.48;;;;;;;1.97;86.24;99838.58;2140850;83;32086;-65
2023/01/08 07:39:59;;;;;;;60.23;37.33;;;;;;;2.04;86.43;99834.03;2113071;84;33712;-65
2023/01/08 07:43:03;;;;;;;58.95;37.55;;;;;;;2.12;86.64;99826.82;2113100;84;30119;-64
2023/01/08 07:46:05;;;;;;;61.63;35.90;;;;;;;2.19;86.63;99823.11;2115108;83;27647;-66
2023/01/08 07:49:07;;;;;;;53.68;34.67;;;;;;;2.25;86.68;99809.77;2123803;83;29484;-65
2023/01/08 07:52:09;;;;;;;54.90;35.10;;;;;;;2.32;86.64;99803.88;2133092;83;32306;-66
2023/01/08 07:55:11;;;;;;;64.67;41.68;;;;;;;2.37;86.59;99797.16;2109020;84;33624;-64
2023/01/08 07:58:14;;;;;;;55.78;36.17;;;;;;;2.42;86.57;99800.57;2109482;84;29670;-65
2023/01/08 08:01:16;;;;;;;55.23;36.68;;;;;;;2.49;86.52;99808.75;2117789;82;27652;-64
2023/01/08 08:04:18;;;;;;;59.23;39.10;;;;;;;2.53;86.48;99802.48;2149712;82;29243;-62
2023/01/08 08:07:19;;;;;;;61.53;38.23;;;;;;;2.58;86.46;99795.76;2119148;82;32517;-63
2023/01/08 08:10:21;;;;;;;62.17;41.83;;;;;;;2.61;86.39;99790.39;2115507;83;33853;-67
2023/01/08 08:13:23;;;;;;;65.00;39.42;;;;;;;2.64;86.36;99791.65;2115603;83;30675;-64
2023/01/08 08:16:25;;;;;;;63.40;42.43;;;;;;;2.69;86.29;99790.20;2123263;83;28235;-66
2023/01/08 08:19:27;;;;;;;71.12;44.18;;;;;;;2.72;86.23;99783.52;2134274;83;28699;-65
2023/01/08 08:22:29;;;;;;;64.60;42.48;;;;;;;2.74;86.23;99783.03;2127857;82;32245;-64
2023/01/08 08:25:31;;;;;;;66.77;41.83;;;;;;;2.79;86.31;99787.75;2128531;83;34156;-63
2023/01/08 08:28:33;;;;;;;63.00;39.45;;;;;;;2.84;86.26;99787.63;2111921;83;29441;-68
2023/01/08 08:31:35;;;;;;;67.22;40.70;;;;;;;2.87;86.22;99778.30;2107673;84;27710;-65
2023/01/08 08:34:41;;;;;;;64.82;41.88;;;;;;;2.92;86.31;99770.23;2116008;83;29828;-66
2023/01/08 08:37:43;;;;;;;65.70;39.53;;;;;;;2.98;86.40;99760.34;2115442;84;33146;-65
2023/01/08 08:40:45;;;;;;;55.95;36.55;;;;;;;3.03;86.48;99761.09;2115873;83;32950;-65
2023/01/08 08:43:50;;;;;;;56.70;36.58;;;;;;;3.09;86.53;99753.44;2115477;84;30508;-64
2023/01/08 08:46:51;;;;;;;;;;;;;;;3.17;86.60;99743.96;2118769;83;27623;-65
2023/01/08 08:49:53;;;;;;;49.67;33.33;;;;;;;3.24;86.69;99748.63;2115826;83;29081;-63
2023/01/08 08:53:00;;;;;;;56.37;34.18;;;;;;;3.33;86.87;99749.67;2115941;83;32212;-63
2023/01/08 08:56:03;;;;;;;51.02;33.30;;;;;;;3.47;87.10;99766.05;2115771;83;33755;-68
2023/01/08 08:59:04;;;;;;;48.73;31.80;;;;;;;3.59;87.11;99755.53;2115745;84;29719;-69
2023/01/08 09:02:08;;;;;;;44.73;30.50;;;;;;;3.79;87.46;99750.09;2115867;83;27739;-70
2023/01/08 09:05:11;;;;;;;48.55;31.10;;;;;;;4.00;87.54;99756.50;2116891;83;28666;-70
2023/01/08 09:08:13;;;;;;;47.20;31.68;;;;;;;4.20;87.54;99754.56;2140061;82;31870;-71
2023/01/08 09:11:14;;;;;;;48.00;29.60;;;;;;;4.40;87.39;99758.33;2146699;82;33019;-71
2023/01/08 09:14:16;;;;;;;47.58;29.95;;;;;;;4.56;87.30;99757.37;2144308;83;29321;-70
2023/01/08 09:17:20;;;;;;;47.50;31.15;;;;;;;4.74;87.22;99762.50;2138269;82;27772;-68
2023/01/08 09:20:22;;;;;;;49.70;29.57;;;;;;;4.92;87.23;99757.03;2137900;82;28714;-71
2023/01/08 09:23:24;;;;;;;46.23;30.65;;;;;;;5.10;87.10;99749.33;2138448;83;30492;-71
2023/01/08 09:26:27;;;;;;;47.30;29.77;;;;;;;5.27;86.93;99758.00;2133947;83;32933;-71
2023/01/08 09:29:29;;;;;;;44.98;28.98;;;;;;;5.43;86.82;99756.98;2105314;84;29362;-72
2023/01/08 09:32:31;;;;;;;46.92;28.40;;;;;;;5.57;86.40;99759.11;2104934;84;27696;-72
2023/01/08 09:35:33;;;;;;;42.78;29.85;;;;;;;5.69;86.26;99759.99;2104911;84;29910;-74
2023/01/08 09:38:35;;;;;;;44.93;27.40;;;;;;;5.82;86.25;99754.20;2129472;83;31190;-71
2023/01/08 09:41:42;;;;;;;41.08;27.82;;;;;;;5.94;86.06;99756.37;2142489;83;33004;-72
2023/01/08 09:44:45;;;;;;;40.40;27.32;;;;;;;6.04;85.97;99753.77;2140376;82;29324;-70
2023/01/08 09:47:47;;;;;;;39.30;25.40;;;;;;;6.15;85.47;99747.17;2132123;83;27621;-70
2023/01/08 09:50:49;;;;;;;41.25;27.40;;;;;;;6.25;85.44;99735.22;2102948;84;29471;-70
2023/01/08 09:53:54;;;;;;;42.10;26.50;;;;;;;6.39;85.60;99734.66;2109050;84;31088;-70
2023/01/08 09:56:58;;;;;;;39.20;26.05;;;;;;;6.53;85.55;99737.61;2111783;84;33391;-69
2023/01/08 10:00:02;;;;;;;39.53;26.68;;;;;;;6.67;85.40;99731.71;2098586;84;29384;-70
2023/01/08 10:03:04;;;;;;;40.40;25.80;;;;;;;6.82;85.04;99725.32;2102695;84;27705;-69
2023/01/08 10:06:14;;;;;;;39.08;24.47;;;;;;;6.96;85.02;99724.25;2094545;84;30778;-68
2023/01/08 10:09:16;;;;;;;43.40;32.17;;;;;;;7.07;84.86;99706.47;2094802;84;31057;-68
2023/01/08 10:12:32;;;;;;;59.20;35.17;;;;;;;7.18;84.38;99703.32;2086768;84;33056;-69
2023/01/08 10:15:34;;;;;;;82.05;51.00;;;;;;;7.32;84.71;99700.49;2081487;84;30443;-70
2023/01/08 10:18:36;;;;;;;49.23;31.27;;;;;;;7.43;84.46;99685.73;2089695;84;27813;-69
2023/01/08 10:21:40;;;;;;;42.55;26.82;;;;;;;7.54;84.21;99679.88;2087156;84;28846;-68
2023/01/08 10:24:42;;;;;;;32.75;22.87;;;;;;;7.67;83.94;99687.32;2089869;84;31770;-70
2023/01/08 10:28:02;;;;;;;35.28;22.90;;;;;;;7.78;83.83;99684.99;2094056;84;33360;-69
2023/01/08 10:31:15;;;;;;;72.72;48.63;;;;;;;7.87;83.33;99683.20;2089463;84;29330;-69
2023/01/08 10:34:34;;;;;;;64.92;45.28;;;;;;;7.97;83.54;99666.28;2086470;84;27669;-70
2023/01/08 10:37:41;;;;;;;47.23;33.90;;;;;;;8.08;83.21;99666.24;2084726;84;28672;-69
2023/01/08 10:40:48;;;;;;;38.20;24.92;;;;;;;8.15;83.25;99671.20;2084971;85;31035;-68
2023/01/08 10:43:54;;;;;;;43.73;28.95;;;;;;;8.24;83.15;99674.33;2105712;84;33769;-68
2023/01/08 10:46:58;;;;;;;72.92;51.73;;;;;;;8.28;82.73;99672.76;2105880;84;29740;-69
2023/01/08 10:50:03;;;;;;;42.98;29.52;;;;;;;8.33;82.63;99661.88;2107051;83;28428;-68
2023/01/08 10:53:22;;;;;;;27.45;18.55;;;;;;;8.38;82.46;99654.96;2090367;85;28720;-67
2023/01/08 10:56:31;;;;;;;28.87;19.05;;;;;;;8.41;82.09;99654.33;2099853;84;31058;-69
2023/01/08 10:59:35;;;;;;;22.62;16.00;;;;;;;8.45;82.17;99652.36;2099837;84;33608;-68
2023/01/08 11:02:39;;;;;;;20.55;14.25;;;;;;;8.46;81.94;99650.95;2098547;84;29939;-69
2023/01/08 11:05:41;;;;;;;25.37;15.83;;;;;;;8.50;81.46;99636.55;2074549;84;27791;-67
2023/01/08 11:08:54;;;;;;;24.07;14.87;;;;;;;8.54;81.55;99632.36;2097873;84;29586;-67
2023/01/08 11:11:56;;;;;;;24.85;16.73;;;;;;;8.57;81.37;99628.20;2097608;84;30409;-67
2023/01/08 11:14:59;;;;;;;21.93;14.87;;;;;;;8.58;80.66;99625.92;2098166;84;32998;-69
2023/01/08 11:18:08;;;;;;;23.05;13.98;;;;;;;8.57;80.69;99622.41;2097893;84;29348;-68
2023/01/08 11:21:21;;;;;;;19.82;13.85;;;;;;;8.61;80.84;99614.61;2086857;84;27717;-72
2023/01/08 11:24:37;;;;;;;18.42;12.68;;;;;;;8.68;80.93;99611.63;2098970;84;28688;-72
2023/01/08 11:27:42;;;;;;;22.45;13.72;;;;;;;8.73;80.66;99610.43;2083951;85;31276;-74
2023/01/08 11:30:45;;;;;;;;;;;;;;;8.79;80.35;99616.80;2086291;85;32955;-72
2023/01/08 11:33:53;;;;;;;20.45;14.03;;;;;;;8.86;80.40;99618.66;2084163;85;29332;-70
2023/01/08 11:37:12;;;;;;;27.50;15.53;;;;;;;8.90;80.19;99624.69;2084304;85;27627;-71
2023/01/08 11:40:18;;;;;;;22.35;17.32;;;;;;;8.93;80.26;99634.77;2084256;84;28680;-71
2023/01/08 11:43:47;;;;;;;27.50;18.75;;;;;;;8.95;79.87;99634.66;2084650;85;31015;-71
2023/01/08 11:47:03;;;;;;;26.00;18.80;;;;;;;8.95;79.85;99626.16;2084563;84;32982;-72
2023/01/08 11:50:15;;;;;;;33.63;22.55;;;;;;;8.95;79.66;99618.15;2084535;85;30139;-71
2023/01/08 11:53:30;;;;;;;31.33;20.30;;;;;;;8.94;79.49;99615.58;2084602;85;27896;-72
2023/01/08 11:57:09;;;;;;;27.80;19.25;;;;;;;8.88;79.31;99612.77;2084614;85;29888;-70
2023/01/08 12:00:39;;;;;;;23.55;16.10;;;;;;;8.85;78.99;99610.25;2084012;85;31688;-70
2023/01/08 12:04:09;;;;;;;29.10;19.73;;;;;;;8.82;79.00;99614.42;2083815;84;33033;-71
2023/01/08 12:07:26;;;;;;;26.77;18.02;;;;;;;8.80;79.12;99613.63;2097252;84;29370;-72
2023/01/08 12:10:39;;;;;;;28.00;21.62;;;;;;;8.83;79.26;99598.78;2118910;84;27763;-69
2023/01/08 12:13:54;;;;;;;23.40;14.63;;;;;;;8.85;79.18;99600.91;2118562;84;29087;-68
2023/01/08 12:17:23;;;;;;;33.58;22.52;;;;;;;8.90;79.22;99612.67;2118727;84;30448;-69
2023/01/08 12:20:35;;;;;;;37.13;24.00;;;;;;;8.93;78.90;99608.50;2118624;84;32964;-70
2023/01/08 12:23:49;;;;;;;21.40;13.53;;;;;;;8.99;78.98;99604.63;2109126;84;30121;-71
2023/01/08 12:27:22;;;;;;;21.90;14.05;;;;;;;9.06;78.77;99595.34;2094194;85;27811;-70
2023/01/08 12:30:47;;;;;;;27.48;16.82;;;;;;;9.10;78.40;99594.24;2094995;85;29432;-71
2023/01/08 12:34:04;;;;;;;22.55;14.30;;;;;;;9.12;78.27;99578.50;2095218;85;31698;-67
2023/01/08 12:37:14;;;;;;;22.62;14.58;;;;;;;9.16;77.94;99587.20;2113964;84;33070;-71
2023/01/08 12:40:32;;;;;;;21.12;15.85;;;;;;;9.21;78.04;99586.48;2115785;84;30050;-71
2023/01/08 12:44:03;;;;;;;20.55;14.68;;;;;;;9.25;78.12;99584.50;2117304;84;27644;-71
2023/01/08 12:47:06;;;;;;;40.38;24.37;;;;;;;9.29;77.85;99580.70;2117274;84;28709;-79
2023/01/08 12:50:22;;;;;;;24.43;16.42;;;;;;;9.33;77.67;99572.91;2116963;84;32353;-72
2023/01/08 12:53:44;;;;;;;28.42;18.20;;;;;;;9.35;77.34;99568.80;2116827;84;33050;-72
2023/01/08 12:57:08;;;;;;;45.58;30.72;;;;;;;9.34;77.33;99569.75;2116866;84;29408;-72
2023/01/08 13:00:35;;;;;;;44.18;30.35;;;;;;;9.37;77.35;99578.45;2117017;84;27689;-70
2023/01/08 13:03:37;;;;;;;21.77;15.68;;;;;;;9.38;76.93;99569.97;2108045;84;29492;-68
2023/01/08 13:07:01;;;;;;;22.85;14.70;;;;;;;9.35;76.75;99576.34;2100919;84;32204;-69
2023/01/08 13:10:10;;;;;;;22.25;15.60;;;;;;;9.30;76.66;99571.75;2094587;85;33188;-71
2023/01/08 13:13:42;;;;;;;26.85;17.50;;;;;;;9.26;76.29;99568.84;2093299;85;29528;-71
2023/01/08 13:16:46;;;;;;;24.80;15.53;;;;;;;9.23;76.12;99554.31;2095034;85;27680;-70
2023/01/08 13:20:03;;;;;;;24.43;16.50;;;;;;;9.17;75.90;99558.69;2094944;85;28819;-70
2023/01/08 13:23:05;;;;;;;25.23;16.65;;;;;;;9.14;75.83;99565.53;2094744;85;31003;-71
2023/01/08 13:26:07;;;;;;;25.10;15.30;;;;;;;9.06;75.62;99548.10;2094441;85;33848;-71
2023/01/08 13:29:37;;;;;;;29.52;20.45;;;;;;;9.02;75.64;99541.69;2094965;85;29327;-70
2023/01/08 13:32:47;;;;;;;32.95;21.12;;;;;;;8.97;75.37;99536.61;2071514;85;28105;-71
2023/01/08 13:35:49;;;;;;;23.52;14.45;;;;;;;8.90;75.41;99544.55;2102373;84;28664;-71
2023/01/08 13:39:06;;;;;;;23.77;15.23;;;;;;;8.86;75.13;99533.64;2094739;85;32000;-71
2023/01/08 13:42:21;;;;;;;24.10;16.05;;;;;;;8.77;74.90;99521.69;2094612;85;33019;-70
2023/01/08 13:47:42;;;;;;;38.20;26.30;;;;;;;8.73;74.90;99519.11;127466;1288;635986;-71
2023/01/08 13:50:45;;;;;;;32.90;22.40;;;;;;;8.65;74.78;99515.63;129179;1271;128682;-70
2023/01/08 13:53:47;;;;;;;39.20;25.80;;;;;;;8.59;75.10;99521.13;129481;1279;115261;-69
2023/01/08 13:56:53;;;;;;;41.20;23.60;;;;;;;8.52;74.93;99517.40;129351;1272;115284;-70
2023/01/08 13:59:57;;;;;;;61.90;38.60;;;;;;;8.45;75.11;99523.60;129367;1272;272132;-69
2023/01/08 14:03:00;;;;;;;35.80;22.00;;;;;;;8.39;75.21;99532.98;129172;1263;114899;-70
2023/01/08 14:06:09;;;;;;;56.30;33.10;;;;;;;8.33;75.22;99525.30;129399;1279;114854;-70
2023/01/08 14:09:19;;;;;;;32.70;19.50;;;;;;;8.28;75.52;99521.98;129521;1268;115942;-70
2023/01/08 14:12:23;;;;;;;39.30;23.70;;;;;;;8.21;74.98;99523.27;129540;1268;115303;-70
2023/01/08 14:15:27;;;;;;;50.50;27.10;;;;;;;8.14;75.25;99523.08;130337;1253;114803;-70
2023/01/08 14:18:29;;;;;;;33.00;20.20;;;;;;;8.07;75.17;99521.30;130207;1259;114891;-71
2023/01/08 14:21:32;;;;;;;29.50;18.20;;;;;;;7.99;75.11;99512.99;130317;1276;114715;-71
2023/01/08 14:24:34;;;;;;;30.70;19.90;;;;;;;7.91;74.99;99513.09;130315;1270;114861;-71